Saltar para o conteúdo principal

Vinhais

ID 1210612 · 41.8434, -7.0034 mapa

Última leitura · 2026-05-09 19:00 (Europe/Lisbon)

Temperatura
10.6 °C
Humidade
87 %
Pressão
Precipitação
0.4 mm
Radiação
Velocidade do vento
6.8 km/h
Direcção do vento
W · Oeste

Histórico de 24 horas

Hora (Europe/Lisbon) Temperatura Humidade Pressão Chuva Vento Direcção
2026-05-09 19:00 10.6 °C 87 % 0.4 mm 6.8 km/h W
2026-05-09 18:00 12.2 °C 80 % 0.0 mm 6.5 km/h S
2026-05-09 17:00 10.2 °C 90 % 1.2 mm 7.6 km/h S
2026-05-09 16:00 10.5 °C 95 % 0.6 mm 15.5 km/h SE
2026-05-09 15:00 10.9 °C 93 % 0.1 mm 13.0 km/h E
2026-05-09 14:00 10.6 °C 97 % 0.3 mm 18.7 km/h E
2026-05-09 13:00 10.1 °C 96 % 1.4 mm 4.3 km/h SE
2026-05-09 12:00 11.5 °C 82 % 1.3 mm 10.4 km/h SE
2026-05-09 11:00 11.5 °C 77 % 0.0 mm 18.4 km/h E
2026-05-09 10:00 10.8 °C 79 % 0.0 mm 18.7 km/h E
2026-05-09 09:00 10.5 °C 81 % 0.0 mm 16.6 km/h SE
2026-05-09 08:00 9.9 °C 85 % 0.0 mm 25.6 km/h E
2026-05-09 07:00 9.7 °C 85 % 0.0 mm 20.9 km/h E
2026-05-09 06:00 10.0 °C 84 % 0.0 mm 22.7 km/h E
2026-05-09 05:00 9.8 °C 85 % 0.1 mm 27.0 km/h E
2026-05-09 04:00 10.2 °C 81 % 0.2 mm 22.7 km/h E
2026-05-09 03:00 10.2 °C 78 % 0.0 mm 31.3 km/h E
2026-05-09 02:00 10.6 °C 75 % 0.0 mm 32.0 km/h E
2026-05-09 01:00 10.8 °C 74 % 0.0 mm 27.7 km/h E
2026-05-09 00:00 10.3 °C 77 % 0.0 mm 21.2 km/h E
2026-05-08 23:00 10.2 °C 79 % 0.0 mm 23.4 km/h E
2026-05-08 22:00 10.5 °C 78 % 0.0 mm 15.5 km/h E
2026-05-08 21:00 11.3 °C 77 % 0.0 mm 13.3 km/h NE
2026-05-08 20:00 12.5 °C 76 % 0.0 mm 6.1 km/h E